sensor_id;sensor_type;location;lat;lon;timestamp;pressure;altitude;pressure_sealevel;temperature
75811;BMP280;64449;50.016;19.954;2022-12-10T00:01:18;97297.22;;;4.68
75811;BMP280;64449;50.016;19.954;2022-12-10T00:03:45;97299.75;;;4.64
75811;BMP280;64449;50.016;19.954;2022-12-10T00:06:21;97300.45;;;4.62
75811;BMP280;64449;50.016;19.954;2022-12-10T00:08:47;97303.64;;;4.62
75811;BMP280;64449;50.016;19.954;2022-12-10T00:11:14;97304.92;;;4.63
75811;BMP280;64449;50.016;19.954;2022-12-10T00:13:40;97309.50;;;4.63
75811;BMP280;64449;50.016;19.954;2022-12-10T00:16:08;97313.84;;;4.65
75811;BMP280;64449;50.016;19.954;2022-12-10T00:18:34;97317.16;;;4.66
75811;BMP280;64449;50.016;19.954;2022-12-10T00:21:07;97318.36;;;4.67
75811;BMP280;64449;50.016;19.954;2022-12-10T00:23:33;97318.51;;;4.68
75811;BMP280;64449;50.016;19.954;2022-12-10T00:26:06;97315.00;;;4.70
75811;BMP280;64449;50.016;19.954;2022-12-10T00:28:32;97315.79;;;4.72
75811;BMP280;64449;50.016;19.954;2022-12-10T00:31:03;97313.65;;;4.73
75811;BMP280;64449;50.016;19.954;2022-12-10T00:33:28;97320.21;;;4.73
75811;BMP280;64449;50.016;19.954;2022-12-10T00:35:54;97320.02;;;4.74
75811;BMP280;64449;50.016;19.954;2022-12-10T00:38:19;97322.29;;;4.74
75811;BMP280;64449;50.016;19.954;2022-12-10T00:40:44;97322.86;;;4.74
75811;BMP280;64449;50.016;19.954;2022-12-10T00:43:09;97325.77;;;4.74
75811;BMP280;64449;50.016;19.954;2022-12-10T00:45:35;97329.55;;;4.74
75811;BMP280;64449;50.016;19.954;2022-12-10T00:48:00;97326.86;;;4.71
75811;BMP280;64449;50.016;19.954;2022-12-10T00:50:25;97322.70;;;4.69
75811;BMP280;64449;50.016;19.954;2022-12-10T00:52:51;97323.88;;;4.67
75811;BMP280;64449;50.016;19.954;2022-12-10T00:55:16;97325.69;;;4.68
75811;BMP280;64449;50.016;19.954;2022-12-10T00:57:42;97328.44;;;4.67
75811;BMP280;64449;50.016;19.954;2022-12-10T01:00:07;97326.98;;;4.63
75811;BMP280;64449;50.016;19.954;2022-12-10T01:02:32;97331.81;;;4.62
75811;BMP280;64449;50.016;19.954;2022-12-10T01:04:58;97331.54;;;4.61
75811;BMP280;64449;50.016;19.954;2022-12-10T01:07:23;97334.50;;;4.61
75811;BMP280;64449;50.016;19.954;2022-12-10T01:09:48;97334.87;;;4.59
75811;BMP280;64449;50.016;19.954;2022-12-10T01:12:14;97336.33;;;4.57
75811;BMP280;64449;50.016;19.954;2022-12-10T01:14:39;97333.68;;;4.55
75811;BMP280;64449;50.016;19.954;2022-12-10T01:17:05;97335.80;;;4.54
75811;BMP280;64449;50.016;19.954;2022-12-10T01:19:32;97333.68;;;4.52
75811;BMP280;64449;50.016;19.954;2022-12-10T01:21:58;97331.81;;;4.51
75811;BMP280;64449;50.016;19.954;2022-12-10T01:24:25;97336.36;;;4.53
75811;BMP280;64449;50.016;19.954;2022-12-10T01:26:52;97336.73;;;4.54
75811;BMP280;64449;50.016;19.954;2022-12-10T01:29:18;97336.83;;;4.55
75811;BMP280;64449;50.016;19.954;2022-12-10T01:31:44;97340.92;;;4.56
75811;BMP280;64449;50.016;19.954;2022-12-10T01:34:12;97347.41;;;4.57
75811;BMP280;64449;50.016;19.954;2022-12-10T01:36:40;97350.85;;;4.58
75811;BMP280;64449;50.016;19.954;2022-12-10T01:39:08;97350.33;;;4.62
75811;BMP280;64449;50.016;19.954;2022-12-10T01:41:36;97354.83;;;4.65
75811;BMP280;64449;50.016;19.954;2022-12-10T01:44:56;97355.45;;;4.67
75811;BMP280;64449;50.016;19.954;2022-12-10T01:46:52;97350.85;;;4.70
75811;BMP280;64449;50.016;19.954;2022-12-10T01:49:20;97352.70;;;4.73
75811;BMP280;64449;50.016;19.954;2022-12-10T01:51:49;97358.85;;;4.74
75811;BMP280;64449;50.016;19.954;2022-12-10T01:54:22;97357.94;;;4.76
75811;BMP280;64449;50.016;19.954;2022-12-10T01:56:50;97361.95;;;4.77
75811;BMP280;64449;50.016;19.954;2022-12-10T01:59:17;97364.41;;;4.79
75811;BMP280;64449;50.016;19.954;2022-12-10T02:01:52;97363.96;;;4.78
75811;BMP280;64449;50.016;19.954;2022-12-10T02:07:26;97367.93;;;4.76
75811;BMP280;64449;50.016;19.954;2022-12-10T02:10:10;97364.91;;;4.74
75811;BMP280;64449;50.016;19.954;2022-12-10T02:12:47;97359.41;;;4.73
75811;BMP280;64449;50.016;19.954;2022-12-10T02:15:16;97362.30;;;4.73
75811;BMP280;64449;50.016;19.954;2022-12-10T02:17:49;97362.23;;;4.73
75811;BMP280;64449;50.016;19.954;2022-12-10T02:20:16;97360.11;;;4.72
75811;BMP280;64449;50.016;19.954;2022-12-10T02:22:49;97362.02;;;4.70
75811;BMP280;64449;50.016;19.954;2022-12-10T02:25:32;97365.77;;;4.69
75811;BMP280;64449;50.016;19.954;2022-12-10T02:30:52;97361.27;;;4.68
75811;BMP280;64449;50.016;19.954;2022-12-10T02:33:19;97360.35;;;4.68
75811;BMP280;64449;50.016;19.954;2022-12-10T02:35:49;97362.67;;;4.68
75811;BMP280;64449;50.016;19.954;2022-12-10T02:38:32;97367.77;;;4.69
75811;BMP280;64449;50.016;19.954;2022-12-10T02:41:00;97374.19;;;4.70
75811;BMP280;64449;50.016;19.954;2022-12-10T02:43:27;97376.14;;;4.72
75811;BMP280;64449;50.016;19.954;2022-12-10T02:45:55;97377.96;;;4.74
75811;BMP280;64449;50.016;19.954;2022-12-10T02:48:22;97382.25;;;4.78
75811;BMP280;64449;50.016;19.954;2022-12-10T02:50:47;97388.02;;;4.81
75811;BMP280;64449;50.016;19.954;2022-12-10T02:53:12;97394.23;;;4.84
75811;BMP280;64449;50.016;19.954;2022-12-10T03:03:44;97390.77;;;4.88
75811;BMP280;64449;50.016;19.954;2022-12-10T03:06:18;97394.02;;;4.87
75811;BMP280;64449;50.016;19.954;2022-12-10T03:11:17;97387.45;;;4.84
75811;BMP280;64449;50.016;19.954;2022-12-10T03:16:26;97389.73;;;4.80
75811;BMP280;64449;50.016;19.954;2022-12-10T03:18:57;97393.38;;;4.79
75811;BMP280;64449;50.016;19.954;2022-12-10T03:21:24;97399.45;;;4.78
75811;BMP280;64449;50.016;19.954;2022-12-10T03:23:52;97395.83;;;4.76
75811;BMP280;64449;50.016;19.954;2022-12-10T03:26:18;97393.50;;;4.76
75811;BMP280;64449;50.016;19.954;2022-12-10T03:28:56;97394.70;;;4.75
75811;BMP280;64449;50.016;19.954;2022-12-10T03:31:22;97400.65;;;4.74
75811;BMP280;64449;50.016;19.954;2022-12-10T03:33:49;97401.08;;;4.72
75811;BMP280;64449;50.016;19.954;2022-12-10T03:36:16;97403.38;;;4.69
75811;BMP280;64449;50.016;19.954;2022-12-10T03:38:42;97408.12;;;4.69
75811;BMP280;64449;50.016;19.954;2022-12-10T03:41:08;97405.19;;;4.70
75811;BMP280;64449;50.016;19.954;2022-12-10T03:43:33;97406.77;;;4.71
75811;BMP280;64449;50.016;19.954;2022-12-10T03:45:59;97398.90;;;4.73
75811;BMP280;64449;50.016;19.954;2022-12-10T03:48:24;97399.38;;;4.76
75811;BMP280;64449;50.016;19.954;2022-12-10T03:50:50;97400.41;;;4.79
75811;BMP280;64449;50.016;19.954;2022-12-10T03:53:15;97402.98;;;4.82
75811;BMP280;64449;50.016;19.954;2022-12-10T03:55:40;97409.08;;;4.84
75811;BMP280;64449;50.016;19.954;2022-12-10T03:58:05;97408.30;;;4.85
75811;BMP280;64449;50.016;19.954;2022-12-10T04:00:31;97411.27;;;4.86
75811;BMP280;64449;50.016;19.954;2022-12-10T04:02:56;97421.87;;;4.86
75811;BMP280;64449;50.016;19.954;2022-12-10T04:05:22;97432.09;;;4.85
75811;BMP280;64449;50.016;19.954;2022-12-10T04:07:47;97431.04;;;4.85
75811;BMP280;64449;50.016;19.954;2022-12-10T04:10:12;97430.88;;;4.85
75811;BMP280;64449;50.016;19.954;2022-12-10T04:12:38;97437.90;;;4.86
75811;BMP280;64449;50.016;19.954;2022-12-10T04:15:04;97450.08;;;4.85
75811;BMP280;64449;50.016;19.954;2022-12-10T04:17:48;97456.10;;;4.81
75811;BMP280;64449;50.016;19.954;2022-12-10T04:20:13;97456.27;;;4.81
75811;BMP280;64449;50.016;19.954;2022-12-10T04:22:57;97459.63;;;4.77
75811;BMP280;64449;50.016;19.954;2022-12-10T04:25:41;97467.60;;;4.72
75811;BMP280;64449;50.016;19.954;2022-12-10T04:28:26;97473.95;;;4.67
75811;BMP280;64449;50.016;19.954;2022-12-10T04:30:51;97479.06;;;4.61
75811;BMP280;64449;50.016;19.954;2022-12-10T04:33:17;97477.72;;;4.57
75811;BMP280;64449;50.016;19.954;2022-12-10T04:35:42;97463.13;;;4.52
75811;BMP280;64449;50.016;19.954;2022-12-10T04:38:07;97456.15;;;4.48
75811;BMP280;64449;50.016;19.954;2022-12-10T04:40:32;97453.45;;;4.44
75811;BMP280;64449;50.016;19.954;2022-12-10T04:42:58;97452.80;;;4.41
75811;BMP280;64449;50.016;19.954;2022-12-10T04:45:23;97453.50;;;4.38
75811;BMP280;64449;50.016;19.954;2022-12-10T04:47:48;97451.20;;;4.37
75811;BMP280;64449;50.016;19.954;2022-12-10T04:50:14;97456.48;;;4.36
75811;BMP280;64449;50.016;19.954;2022-12-10T04:52:39;97464.82;;;4.37
75811;BMP280;64449;50.016;19.954;2022-12-10T04:55:05;97475.12;;;4.41
75811;BMP280;64449;50.016;19.954;2022-12-10T04:57:31;97477.21;;;4.42
75811;BMP280;64449;50.016;19.954;2022-12-10T04:59:56;97480.02;;;4.44
75811;BMP280;64449;50.016;19.954;2022-12-10T05:02:21;97480.13;;;4.47
75811;BMP280;64449;50.016;19.954;2022-12-10T05:04:48;97477.96;;;4.50
75811;BMP280;64449;50.016;19.954;2022-12-10T05:07:14;97474.90;;;4.52
75811;BMP280;64449;50.016;19.954;2022-12-10T05:09:39;97478.82;;;4.54
75811;BMP280;64449;50.016;19.954;2022-12-10T05:12:04;97480.16;;;4.55
75811;BMP280;64449;50.016;19.954;2022-12-10T05:14:30;97477.46;;;4.58
75811;BMP280;64449;50.016;19.954;2022-12-10T05:16:55;97480.07;;;4.58
75811;BMP280;64449;50.016;19.954;2022-12-10T05:19:20;97485.35;;;4.58
75811;BMP280;64449;50.016;19.954;2022-12-10T05:21:47;97490.33;;;4.59
75811;BMP280;64449;50.016;19.954;2022-12-10T05:24:31;97495.22;;;4.60
75811;BMP280;64449;50.016;19.954;2022-12-10T05:26:57;97507.52;;;4.60
75811;BMP280;64449;50.016;19.954;2022-12-10T05:29:23;97515.15;;;4.61
75811;BMP280;64449;50.016;19.954;2022-12-10T05:31:48;97521.02;;;4.62
75811;BMP280;64449;50.016;19.954;2022-12-10T05:34:13;97528.79;;;4.64
75811;BMP280;64449;50.016;19.954;2022-12-10T05:36:39;97541.95;;;4.63
75811;BMP280;64449;50.016;19.954;2022-12-10T05:39:04;97542.66;;;4.63
75811;BMP280;64449;50.016;19.954;2022-12-10T05:41:33;97540.21;;;4.61
75811;BMP280;64449;50.016;19.954;2022-12-10T05:43:58;97542.13;;;4.60
75811;BMP280;64449;50.016;19.954;2022-12-10T05:46:26;97545.20;;;4.62
75811;BMP280;64449;50.016;19.954;2022-12-10T05:48:52;97540.49;;;4.62
75811;BMP280;64449;50.016;19.954;2022-12-10T05:51:24;97535.90;;;4.65
75811;BMP280;64449;50.016;19.954;2022-12-10T05:53:51;97541.83;;;4.66
75811;BMP280;64449;50.016;19.954;2022-12-10T05:56:19;97541.41;;;4.69
75811;BMP280;64449;50.016;19.954;2022-12-10T05:58:46;97530.46;;;4.71
75811;BMP280;64449;50.016;19.954;2022-12-10T06:01:14;97518.40;;;4.72
75811;BMP280;64449;50.016;19.954;2022-12-10T06:03:41;97510.66;;;4.73
75811;BMP280;64449;50.016;19.954;2022-12-10T06:06:07;97501.77;;;4.74
75811;BMP280;64449;50.016;19.954;2022-12-10T06:08:33;97504.66;;;4.75
75811;BMP280;64449;50.016;19.954;2022-12-10T06:11:07;97513.46;;;4.76
75811;BMP280;64449;50.016;19.954;2022-12-10T06:13:33;97516.98;;;4.75
75811;BMP280;64449;50.016;19.954;2022-12-10T06:15:59;97516.48;;;4.74
75811;BMP280;64449;50.016;19.954;2022-12-10T06:18:24;97510.14;;;4.75
75811;BMP280;64449;50.016;19.954;2022-12-10T06:20:50;97502.67;;;4.75
75811;BMP280;64449;50.016;19.954;2022-12-10T06:23:15;97507.09;;;4.75
75811;BMP280;64449;50.016;19.954;2022-12-10T06:25:41;97509.30;;;4.76
75811;BMP280;64449;50.016;19.954;2022-12-10T06:28:07;97513.94;;;4.75
75811;BMP280;64449;50.016;19.954;2022-12-10T06:30:33;97526.16;;;4.75
75811;BMP280;64449;50.016;19.954;2022-12-10T06:32:58;97533.05;;;4.74
75811;BMP280;64449;50.016;19.954;2022-12-10T06:35:24;97533.54;;;4.72
75811;BMP280;64449;50.016;19.954;2022-12-10T06:37:49;97528.70;;;4.70
75811;BMP280;64449;50.016;19.954;2022-12-10T06:40:15;97530.57;;;4.71
75811;BMP280;64449;50.016;19.954;2022-12-10T06:42:41;97548.79;;;4.74
75811;BMP280;64449;50.016;19.954;2022-12-10T06:45:07;97556.58;;;4.75
75811;BMP280;64449;50.016;19.954;2022-12-10T06:47:32;97557.87;;;4.78
75811;BMP280;64449;50.016;19.954;2022-12-10T06:49:58;97563.35;;;4.81
75811;BMP280;64449;50.016;19.954;2022-12-10T06:52:23;97562.85;;;4.85
75811;BMP280;64449;50.016;19.954;2022-12-10T06:54:48;97561.63;;;4.87
75811;BMP280;64449;50.016;19.954;2022-12-10T06:57:14;97569.83;;;4.90
75811;BMP280;64449;50.016;19.954;2022-12-10T06:59:39;97582.61;;;4.91
75811;BMP280;64449;50.016;19.954;2022-12-10T07:02:05;97592.54;;;4.90
75811;BMP280;64449;50.016;19.954;2022-12-10T07:04:30;97597.98;;;4.89
75811;BMP280;64449;50.016;19.954;2022-12-10T07:06:56;97604.27;;;4.86
75811;BMP280;64449;50.016;19.954;2022-12-10T07:09:21;97609.23;;;4.84
75811;BMP280;64449;50.016;19.954;2022-12-10T07:11:46;97615.04;;;4.81
75811;BMP280;64449;50.016;19.954;2022-12-10T07:14:14;97608.38;;;4.77
75811;BMP280;64449;50.016;19.954;2022-12-10T07:16:40;97602.23;;;4.71
75811;BMP280;64449;50.016;19.954;2022-12-10T07:19:06;97597.52;;;4.68
75811;BMP280;64449;50.016;19.954;2022-12-10T07:21:33;97601.42;;;4.65
75811;BMP280;64449;50.016;19.954;2022-12-10T07:24:02;97603.66;;;4.66
75811;BMP280;64449;50.016;19.954;2022-12-10T07:26:30;97602.06;;;4.67
75811;BMP280;64449;50.016;19.954;2022-12-10T07:28:56;97596.55;;;4.67
75811;BMP280;64449;50.016;19.954;2022-12-10T07:31:22;97606.10;;;4.68
75811;BMP280;64449;50.016;19.954;2022-12-10T07:33:48;97604.98;;;4.69
75811;BMP280;64449;50.016;19.954;2022-12-10T07:36:14;97605.81;;;4.72
75811;BMP280;64449;50.016;19.954;2022-12-10T07:38:40;97610.38;;;4.74
75811;BMP280;64449;50.016;19.954;2022-12-10T07:41:10;97611.70;;;4.77
75811;BMP280;64449;50.016;19.954;2022-12-10T07:43:37;97612.34;;;4.80
75811;BMP280;64449;50.016;19.954;2022-12-10T07:48:40;97611.58;;;4.86
75811;BMP280;64449;50.016;19.954;2022-12-10T07:51:06;97611.93;;;4.89
75811;BMP280;64449;50.016;19.954;2022-12-10T07:53:32;97605.27;;;4.91
75811;BMP280;64449;50.016;19.954;2022-12-10T07:55:57;97596.69;;;4.93
75811;BMP280;64449;50.016;19.954;2022-12-10T07:58:23;97592.42;;;4.94
75811;BMP280;64449;50.016;19.954;2022-12-10T08:00:48;97594.03;;;4.96
75811;BMP280;64449;50.016;19.954;2022-12-10T08:03:14;97595.59;;;4.97
75811;BMP280;64449;50.016;19.954;2022-12-10T08:05:39;97598.64;;;4.98
75811;BMP280;64449;50.016;19.954;2022-12-10T08:08:05;97602.39;;;4.99
75811;BMP280;64449;50.016;19.954;2022-12-10T08:10:33;97611.32;;;5.02
75811;BMP280;64449;50.016;19.954;2022-12-10T08:12:59;97608.41;;;5.05
75811;BMP280;64449;50.016;19.954;2022-12-10T08:15:24;97609.61;;;5.06
75811;BMP280;64449;50.016;19.954;2022-12-10T08:17:49;97614.51;;;5.09
75811;BMP280;64449;50.016;19.954;2022-12-10T08:20:15;97620.58;;;5.10
75811;BMP280;64449;50.016;19.954;2022-12-10T08:22:40;97624.02;;;5.12
75811;BMP280;64449;50.016;19.954;2022-12-10T08:25:06;97627.28;;;5.12
75811;BMP280;64449;50.016;19.954;2022-12-10T08:27:31;97632.27;;;5.13
75811;BMP280;64449;50.016;19.954;2022-12-10T08:29:57;97635.56;;;5.14
75811;BMP280;64449;50.016;19.954;2022-12-10T08:32:22;97639.61;;;5.16
75811;BMP280;64449;50.016;19.954;2022-12-10T08:34:48;97637.15;;;5.17
75811;BMP280;64449;50.016;19.954;2022-12-10T08:37:13;97638.20;;;5.18
75811;BMP280;64449;50.016;19.954;2022-12-10T08:39:39;97638.45;;;5.19
75811;BMP280;64449;50.016;19.954;2022-12-10T08:42:05;97645.05;;;5.20
75811;BMP280;64449;50.016;19.954;2022-12-10T08:44:30;97647.45;;;5.21
75811;BMP280;64449;50.016;19.954;2022-12-10T08:46:56;97643.59;;;5.24
75811;BMP280;64449;50.016;19.954;2022-12-10T08:49:21;97639.20;;;5.24
75811;BMP280;64449;50.016;19.954;2022-12-10T08:51:46;97638.48;;;5.25
75811;BMP280;64449;50.016;19.954;2022-12-10T08:54:12;97636.81;;;5.26
75811;BMP280;64449;50.016;19.954;2022-12-10T08:56:37;97626.10;;;5.26
75811;BMP280;64449;50.016;19.954;2022-12-10T08:59:04;97620.25;;;5.27
75811;BMP280;64449;50.016;19.954;2022-12-10T09:01:30;97621.63;;;5.30
75811;BMP280;64449;50.016;19.954;2022-12-10T09:03:55;97629.27;;;5.31
75811;BMP280;64449;50.016;19.954;2022-12-10T09:06:22;97629.69;;;5.31
75811;BMP280;64449;50.016;19.954;2022-12-10T09:08:49;97631.61;;;5.31
75811;BMP280;64449;50.016;19.954;2022-12-10T09:11:21;97633.89;;;5.30
75811;BMP280;64449;50.016;19.954;2022-12-10T09:13:47;97634.06;;;5.31
75811;BMP280;64449;50.016;19.954;2022-12-10T09:16:12;97632.74;;;5.32
75811;BMP280;64449;50.016;19.954;2022-12-10T09:18:38;97633.47;;;5.33
75811;BMP280;64449;50.016;19.954;2022-12-10T09:21:09;97626.78;;;5.33
75811;BMP280;64449;50.016;19.954;2022-12-10T09:23:35;97627.80;;;5.33
75811;BMP280;64449;50.016;19.954;2022-12-10T09:26:00;97627.38;;;5.32
75811;BMP280;64449;50.016;19.954;2022-12-10T09:28:25;97623.09;;;5.32
75811;BMP280;64449;50.016;19.954;2022-12-10T09:30:55;97618.26;;;5.33
75811;BMP280;64449;50.016;19.954;2022-12-10T09:33:20;97621.62;;;5.36
75811;BMP280;64449;50.016;19.954;2022-12-10T09:35:46;97618.55;;;5.39
75811;BMP280;64449;50.016;19.954;2022-12-10T09:38:11;97619.77;;;5.41
75811;BMP280;64449;50.016;19.954;2022-12-10T09:40:41;97618.85;;;5.40
75811;BMP280;64449;50.016;19.954;2022-12-10T09:43:50;97616.84;;;5.39
75811;BMP280;64449;50.016;19.954;2022-12-10T09:46:41;97608.44;;;5.38
75811;BMP280;64449;50.016;19.954;2022-12-10T09:51:55;97613.06;;;5.41
75811;BMP280;64449;50.016;19.954;2022-12-10T09:54:29;97619.66;;;5.42
75811;BMP280;64449;50.016;19.954;2022-12-10T09:56:55;97619.52;;;5.41
75811;BMP280;64449;50.016;19.954;2022-12-10T09:59:27;97615.45;;;5.41
75811;BMP280;64449;50.016;19.954;2022-12-10T10:04:38;97603.71;;;5.43
75811;BMP280;64449;50.016;19.954;2022-12-10T10:07:05;97605.38;;;5.45
75811;BMP280;64449;50.016;19.954;2022-12-10T10:09:32;97608.41;;;5.46
75811;BMP280;64449;50.016;19.954;2022-12-10T10:12:11;97608.14;;;5.46
75811;BMP280;64449;50.016;19.954;2022-12-10T10:14:38;97608.61;;;5.46
75811;BMP280;64449;50.016;19.954;2022-12-10T10:17:09;97608.59;;;5.47
75811;BMP280;64449;50.016;19.954;2022-12-10T10:19:36;97608.59;;;5.48
75811;BMP280;64449;50.016;19.954;2022-12-10T10:22:04;97605.58;;;5.50
75811;BMP280;64449;50.016;19.954;2022-12-10T10:24:39;97604.25;;;5.52
75811;BMP280;64449;50.016;19.954;2022-12-10T10:27:16;97601.78;;;5.53
75811;BMP280;64449;50.016;19.954;2022-12-10T10:29:46;97602.33;;;5.56
75811;BMP280;64449;50.016;19.954;2022-12-10T10:34:39;97596.82;;;5.61
75811;BMP280;64449;50.016;19.954;2022-12-10T10:37:05;97598.86;;;5.62
75811;BMP280;64449;50.016;19.954;2022-12-10T10:39:32;97599.11;;;5.66
75811;BMP280;64449;50.016;19.954;2022-12-10T10:42:08;97594.92;;;5.69
75811;BMP280;64449;50.016;19.954;2022-12-10T10:44:36;97590.99;;;5.71
75811;BMP280;64449;50.016;19.954;2022-12-10T10:47:24;97587.10;;;5.72
75811;BMP280;64449;50.016;19.954;2022-12-10T10:49:49;97588.19;;;5.73
75811;BMP280;64449;50.016;19.954;2022-12-10T10:52:15;97586.52;;;5.72
75811;BMP280;64449;50.016;19.954;2022-12-10T10:54:43;97591.58;;;5.71
75811;BMP280;64449;50.016;19.954;2022-12-10T10:57:28;97591.61;;;5.70
75811;BMP280;64449;50.016;19.954;2022-12-10T11:02:43;97602.35;;;5.70
75811;BMP280;64449;50.016;19.954;2022-12-10T11:05:17;97603.36;;;5.70
75811;BMP280;64449;50.016;19.954;2022-12-10T11:07:45;97606.30;;;5.70
75811;BMP280;64449;50.016;19.954;2022-12-10T11:10:22;97609.01;;;5.70
75811;BMP280;64449;50.016;19.954;2022-12-10T11:13:05;97606.34;;;5.70
75811;BMP280;64449;50.016;19.954;2022-12-10T11:15:36;97605.38;;;5.71
75811;BMP280;64449;50.016;19.954;2022-12-10T11:21:01;97609.84;;;5.74
75811;BMP280;64449;50.016;19.954;2022-12-10T11:23:28;97605.19;;;5.73
75811;BMP280;64449;50.016;19.954;2022-12-10T11:29:08;97606.56;;;5.75
75811;BMP280;64449;50.016;19.954;2022-12-10T11:34:44;97608.02;;;5.78
75811;BMP280;64449;50.016;19.954;2022-12-10T11:57:44;97600.75;;;5.50
75811;BMP280;64449;50.016;19.954;2022-12-10T12:00:20;97600.03;;;5.47
75811;BMP280;64449;50.016;19.954;2022-12-10T12:05:52;97601.33;;;5.39
75811;BMP280;64449;50.016;19.954;2022-12-10T12:16:11;97606.09;;;5.34
75811;BMP280;64449;50.016;19.954;2022-12-10T12:21:11;97604.08;;;5.34
75811;BMP280;64449;50.016;19.954;2022-12-10T12:23:49;97601.04;;;5.35
75811;BMP280;64449;50.016;19.954;2022-12-10T12:26:32;97595.05;;;5.37
75811;BMP280;64449;50.016;19.954;2022-12-10T12:29:20;97590.91;;;5.40
75811;BMP280;64449;50.016;19.954;2022-12-10T12:31:54;97587.84;;;5.45
75811;BMP280;64449;50.016;19.954;2022-12-10T12:34:25;97585.20;;;5.41
75811;BMP280;64449;50.016;19.954;2022-12-10T12:36:52;97588.52;;;5.40
75811;BMP280;64449;50.016;19.954;2022-12-10T12:39:34;97584.73;;;5.38
75811;BMP280;64449;50.016;19.954;2022-12-10T12:44:56;97571.85;;;5.35
75811;BMP280;64449;50.016;19.954;2022-12-10T12:49:55;97581.73;;;5.32
75811;BMP280;64449;50.016;19.954;2022-12-10T12:52:48;97580.89;;;5.29
75811;BMP280;64449;50.016;19.954;2022-12-10T12:55:21;97583.89;;;5.26
75811;BMP280;64449;50.016;19.954;2022-12-10T12:57:55;97591.39;;;5.25
75811;BMP280;64449;50.016;19.954;2022-12-10T13:00:23;97593.91;;;5.25
75811;BMP280;64449;50.016;19.954;2022-12-10T13:05:36;97590.76;;;5.25
75811;BMP280;64449;50.016;19.954;2022-12-10T13:08:24;97598.29;;;5.25
75811;BMP280;64449;50.016;19.954;2022-12-10T13:10:59;97599.59;;;5.25
75811;BMP280;64449;50.016;19.954;2022-12-10T13:13:34;97591.83;;;5.26
75811;BMP280;64449;50.016;19.954;2022-12-10T13:16:35;97589.07;;;5.26
75811;BMP280;64449;50.016;19.954;2022-12-10T13:32:21;97628.45;;;5.24
75811;BMP280;64449;50.016;19.954;2022-12-10T13:37:36;97630.55;;;5.22
75811;BMP280;64449;50.016;19.954;2022-12-10T13:42:35;97635.80;;;5.21
75811;BMP280;64449;50.016;19.954;2022-12-10T13:45:36;97634.55;;;5.20
75811;BMP280;64449;50.016;19.954;2022-12-10T13:48:25;97631.01;;;5.20
75811;BMP280;64449;50.016;19.954;2022-12-10T13:51:10;97628.02;;;5.21
75811;BMP280;64449;50.016;19.954;2022-12-10T14:06:51;97639.33;;;5.15
75811;BMP280;64449;50.016;19.954;2022-12-10T14:09:34;97642.26;;;5.15
75811;BMP280;64449;50.016;19.954;2022-12-10T14:12:10;97643.88;;;5.13
75811;BMP280;64449;50.016;19.954;2022-12-10T14:14:42;97649.12;;;5.12
75811;BMP280;64449;50.016;19.954;2022-12-10T14:17:14;97656.14;;;5.11
75811;BMP280;64449;50.016;19.954;2022-12-10T14:19:45;97654.94;;;5.09
75811;BMP280;64449;50.016;19.954;2022-12-10T14:22:33;97655.55;;;5.10
75811;BMP280;64449;50.016;19.954;2022-12-10T14:25:01;97651.52;;;5.12
75811;BMP280;64449;50.016;19.954;2022-12-10T14:27:28;97646.80;;;5.15
75811;BMP280;64449;50.016;19.954;2022-12-10T14:30:04;97643.65;;;5.18
75811;BMP280;64449;50.016;19.954;2022-12-10T14:32:35;97644.32;;;5.20
75811;BMP280;64449;50.016;19.954;2022-12-10T14:35:03;97643.44;;;5.23
75811;BMP280;64449;50.016;19.954;2022-12-10T14:37:33;97644.40;;;5.24
75811;BMP280;64449;50.016;19.954;2022-12-10T14:40:00;97647.84;;;5.25
75811;BMP280;64449;50.016;19.954;2022-12-10T14:42:26;97646.48;;;5.26
75811;BMP280;64449;50.016;19.954;2022-12-10T14:45:03;97638.58;;;5.25
75811;BMP280;64449;50.016;19.954;2022-12-10T14:47:36;97634.90;;;5.24
75811;BMP280;64449;50.016;19.954;2022-12-10T14:50:03;97643.07;;;5.23
75811;BMP280;64449;50.016;19.954;2022-12-10T14:52:32;97640.86;;;5.21
75811;BMP280;64449;50.016;19.954;2022-12-10T14:55:00;97640.64;;;5.19
75811;BMP280;64449;50.016;19.954;2022-12-10T14:57:41;97640.90;;;5.18
75811;BMP280;64449;50.016;19.954;2022-12-10T15:02:39;97649.27;;;5.09
75811;BMP280;64449;50.016;19.954;2022-12-10T15:05:15;97653.15;;;5.07
75811;BMP280;64449;50.016;19.954;2022-12-10T15:07:48;97653.69;;;5.05
75811;BMP280;64449;50.016;19.954;2022-12-10T15:10:19;97641.78;;;5.04
75811;BMP280;64449;50.016;19.954;2022-12-10T15:12:49;97636.91;;;5.01
75811;BMP280;64449;50.016;19.954;2022-12-10T15:15:22;97640.69;;;4.99
75811;BMP280;64449;50.016;19.954;2022-12-10T15:20:44;97643.27;;;4.98
75811;BMP280;64449;50.016;19.954;2022-12-10T15:23:31;97643.34;;;5.00
75811;BMP280;64449;50.016;19.954;2022-12-10T15:26:00;97645.33;;;5.01
75811;BMP280;64449;50.016;19.954;2022-12-10T15:28:38;97648.26;;;5.01
75811;BMP280;64449;50.016;19.954;2022-12-10T15:34:12;97651.29;;;5.07
75811;BMP280;64449;50.016;19.954;2022-12-10T15:36:42;97656.91;;;5.07
75811;BMP280;64449;50.016;19.954;2022-12-10T15:41:43;97666.07;;;5.00
75811;BMP280;64449;50.016;19.954;2022-12-10T15:47:18;97668.98;;;4.98
75811;BMP280;64449;50.016;19.954;2022-12-10T15:49:45;97671.88;;;4.98
75811;BMP280;64449;50.016;19.954;2022-12-10T15:54:45;97661.63;;;4.92
75811;BMP280;64449;50.016;19.954;2022-12-10T15:59:43;97660.19;;;4.86
75811;BMP280;64449;50.016;19.954;2022-12-10T16:04:43;97662.47;;;4.77
75811;BMP280;64449;50.016;19.954;2022-12-10T16:07:08;97663.82;;;4.76
75811;BMP280;64449;50.016;19.954;2022-12-10T16:09:34;97660.42;;;4.73
75811;BMP280;64449;50.016;19.954;2022-12-10T16:11:59;97658.73;;;4.72
75811;BMP280;64449;50.016;19.954;2022-12-10T16:14:24;97657.57;;;4.72
75811;BMP280;64449;50.016;19.954;2022-12-10T16:16:50;97658.91;;;4.73
75811;BMP280;64449;50.016;19.954;2022-12-10T16:19:15;97657.19;;;4.73
75811;BMP280;64449;50.016;19.954;2022-12-10T16:21:40;97655.98;;;4.74
75811;BMP280;64449;50.016;19.954;2022-12-10T16:24:06;97651.66;;;4.72
75811;BMP280;64449;50.016;19.954;2022-12-10T16:26:31;97646.78;;;4.70
75811;BMP280;64449;50.016;19.954;2022-12-10T16:28:57;97648.23;;;4.68
75811;BMP280;64449;50.016;19.954;2022-12-10T16:31:22;97650.84;;;4.66
75811;BMP280;64449;50.016;19.954;2022-12-10T16:33:47;97648.86;;;4.63
75811;BMP280;64449;50.016;19.954;2022-12-10T16:36:16;97645.81;;;4.60